createdAt,value
2024-02-29T05:34:17.000Z,567.361
2024-02-29T05:35:33.000Z,90.523
2024-02-29T05:36:48.000Z,65.34
2024-02-29T05:38:03.000Z,116.074
2024-02-29T05:39:18.000Z,184.664
2024-02-29T05:40:34.000Z,221.597
2024-02-29T05:41:51.000Z,205.768
2024-02-29T05:43:07.000Z,94.97
2024-02-29T05:44:22.000Z,91.901
2024-02-29T05:45:37.000Z,94.97
2024-02-29T05:46:53.000Z,56.381
2024-02-29T05:48:08.000Z,68.553
2024-02-29T05:49:25.000Z,65.696
2024-02-29T05:50:41.000Z,41.172
2024-02-29T05:51:57.000Z,87.945
2024-02-29T05:53:13.000Z,79.142
2024-02-29T05:54:28.000Z,528.078
2024-02-29T05:55:44.000Z,94.97
2024-02-29T05:56:59.000Z,147.731
2024-02-29T05:58:15.000Z,137.179
2024-02-29T05:59:31.000Z,311.291
2024-02-29T06:00:47.000Z,369.328
2024-02-29T06:02:02.000Z,548.716
2024-02-29T06:03:17.000Z,786.141
2024-02-29T06:04:33.000Z,860.006
2024-02-29T06:05:48.000Z,817.797
2024-02-29T06:07:04.000Z,1107.983
2024-02-29T06:08:21.000Z,1213.505
2024-02-29T06:09:37.000Z,1044.67
2024-02-29T06:10:52.000Z,1271.543
2024-02-29T06:12:07.000Z,1366.513
2024-02-29T06:13:23.000Z,1408.722
2024-02-29T06:14:38.000Z,1255.714
2024-02-29T06:15:53.000Z,1197.677
2024-02-29T06:17:10.000Z,1181.849
2024-02-29T06:18:28.000Z,1139.64
2024-02-29T06:19:44.000Z,1952.161
2024-02-29T06:20:59.000Z,4616.597
2024-02-29T06:22:14.000Z,6283.848
2024-02-29T06:23:29.000Z,9697.491
2024-02-29T06:24:44.000Z,3735.486
2024-02-29T06:26:01.000Z,2833.271
2024-02-29T06:27:17.000Z,3186.771
2024-02-29T06:28:34.000Z,7676.741
2024-02-29T06:29:50.000Z,5803.722
2024-02-29T06:31:05.000Z,9834.67
2024-02-29T06:32:21.000Z,9713.319
2024-02-29T06:33:36.000Z,12641.562
2024-02-29T06:34:51.000Z,11871.249
2024-02-29T06:36:07.000Z,10082.647
2024-02-29T06:37:24.000Z,10910.997
2024-02-29T06:38:41.000Z,10710.505
2024-02-29T06:39:57.000Z,9797.737
2024-02-29T06:41:12.000Z,7692.569
2024-02-29T06:42:27.000Z,5724.58
2024-02-29T06:43:42.000Z,3830.456
2024-02-29T06:44:58.000Z,2806.891
2024-02-29T06:46:13.000Z,2959.898
2024-02-29T06:47:30.000Z,3065.42
2024-02-29T06:48:47.000Z,2358.421
2024-02-29T06:50:03.000Z,1413.998
2024-02-29T06:51:18.000Z,849.454
2024-02-29T06:52:34.000Z,712.275
2024-02-29T06:53:49.000Z,643.685
2024-02-29T06:55:04.000Z,474.85
2024-02-29T06:56:20.000Z,353.499
2024-02-29T06:57:36.000Z,168.836
2024-02-29T06:58:52.000Z,129.874
2024-02-29T07:00:07.000Z,77.737
2024-02-29T07:01:22.000Z,92.418
2024-02-29T07:02:38.000Z,71.198
2024-02-29T07:03:53.000Z,119.564
2024-02-29T07:05:09.000Z,142.128
2024-02-29T07:06:26.000Z,76.986
2024-02-29T07:07:42.000Z,104.975
2024-02-29T07:08:58.000Z,66.054
2024-02-29T07:10:13.000Z,81.541
2024-02-29T07:11:28.000Z,91.988
2024-02-29T07:12:43.000Z,74.747
2024-02-29T07:13:59.000Z,77.253
2024-02-29T07:15:15.000Z,76.299
2024-02-29T07:16:32.000Z,56.482
2024-02-29T07:17:47.000Z,62.817
2024-02-29T07:19:03.000Z,61.706
2024-02-29T07:20:18.000Z,46.381
2024-02-29T07:21:34.000Z,46.939
2024-02-29T07:22:49.000Z,70.683
2024-02-29T07:24:05.000Z,66.952
2024-02-29T07:25:21.000Z,58.085
2024-02-29T07:26:38.000Z,103.981
2024-02-29T07:27:59.000Z,82.727
2024-02-29T07:29:20.000Z,41.785
2024-02-29T07:30:37.000Z,94.97
2024-02-29T07:31:53.000Z,46.499
2024-02-29T07:33:09.000Z,71.561
2024-02-29T07:34:25.000Z,66.85
2024-02-29T07:35:40.000Z,60.969
2024-02-29T07:36:56.000Z,79.011
2024-02-29T07:38:11.000Z,65.065
2024-02-29T07:39:27.000Z,51.695
2024-02-29T07:40:43.000Z,94.232
2024-02-29T07:42:00.000Z,101.804
2024-02-29T07:43:16.000Z,81.705
2024-02-29T07:44:31.000Z,54.313
2024-02-29T07:45:46.000Z,74.205
2024-02-29T07:47:01.000Z,79.337
2024-02-29T07:48:17.000Z,63.467
2024-02-29T07:49:33.000Z,50.938
2024-02-29T07:50:50.000Z,46.9
2024-02-29T07:52:06.000Z,54.899
2024-02-29T07:53:22.000Z,39.913
2024-02-29T07:54:37.000Z,46.549
2024-02-29T07:55:52.000Z,58.249
2024-02-29T07:57:07.000Z,45.886
2024-02-29T07:58:23.000Z,579.186
2024-02-29T07:59:39.000Z,30.697
2024-02-29T08:00:55.000Z,51.259
2024-02-29T08:02:12.000Z,61.704
2024-02-29T08:03:27.000Z,56.3
2024-02-29T08:04:42.000Z,50.002
2024-02-29T08:05:57.000Z,82.847
2024-02-29T08:07:13.000Z,35.497
2024-02-29T08:08:28.000Z,46.213
2024-02-29T08:09:44.000Z,47.112
2024-02-29T08:11:00.000Z,70.881
2024-02-29T08:12:16.000Z,71.377
2024-02-29T08:13:31.000Z,39.599
2024-02-29T08:14:46.000Z,64.901
2024-02-29T08:16:01.000Z,103.192
2024-02-29T08:17:18.000Z,102.102
2024-02-29T08:18:34.000Z,579.449
2024-02-29T08:19:49.000Z,78.87
2024-02-29T08:21:05.000Z,55.868
2024-02-29T08:22:20.000Z,57.147
2024-02-29T08:23:35.000Z,72.974
2024-02-29T08:24:51.000Z,53.808
2024-02-29T08:26:07.000Z,30.772
2024-02-29T08:27:23.000Z,59.869
2024-02-29T08:28:38.000Z,46.866
2024-02-29T08:29:54.000Z,36.009
2024-02-29T08:31:09.000Z,67.976
2024-02-29T08:32:24.000Z,269.082
2024-02-29T08:33:40.000Z,52.025
2024-02-29T08:34:56.000Z,57.582
2024-02-29T08:36:13.000Z,42.802
2024-02-29T08:37:28.000Z,47.717
2024-02-29T08:38:44.000Z,52.575
2024-02-29T08:39:59.000Z,41.477
2024-02-29T08:41:15.000Z,45.392
2024-02-29T08:42:30.000Z,36.545
2024-02-29T08:43:47.000Z,60.232
2024-02-29T08:45:03.000Z,61.137
2024-02-29T08:46:18.000Z,56.381
2024-02-29T08:47:34.000Z,49.609
2024-02-29T08:48:49.000Z,86.385
2024-02-29T08:50:05.000Z,58.653
2024-02-29T08:51:20.000Z,41.271
2024-02-29T08:52:36.000Z,63.72
2024-02-29T08:53:53.000Z,58.423
2024-02-29T08:55:09.000Z,62.429
2024-02-29T08:56:25.000Z,75.732
2024-02-29T08:57:40.000Z,105.161
2024-02-29T08:58:55.000Z,57.393
2024-02-29T09:00:10.000Z,53.263
2024-02-29T09:01:26.000Z,75.529
2024-02-29T09:02:42.000Z,59.203
2024-02-29T09:03:58.000Z,78.862
2024-02-29T09:05:15.000Z,56.852
2024-02-29T09:06:30.000Z,75.631
2024-02-29T09:07:46.000Z,61.983
2024-02-29T09:09:02.000Z,81.943
2024-02-29T09:10:17.000Z,34.691
2024-02-29T09:11:32.000Z,65.826
2024-02-29T09:12:48.000Z,61.815
2024-02-29T09:14:05.000Z,41.742
2024-02-29T09:15:21.000Z,67.95
2024-02-29T09:16:37.000Z,50.959
2024-02-29T09:17:52.000Z,68.526
2024-02-29T09:19:07.000Z,85.068
2024-02-29T09:20:22.000Z,70.034
2024-02-29T09:21:38.000Z,75.476
2024-02-29T09:22:54.000Z,73.47
2024-02-29T09:24:11.000Z,269.082
2024-02-29T09:25:26.000Z,91.356
2024-02-29T09:26:42.000Z,114.204
2024-02-29T09:27:57.000Z,94.97
2024-02-29T09:29:12.000Z,100.246
2024-02-29T09:30:28.000Z,41.785
2024-02-29T09:31:44.000Z,57.326
2024-02-29T09:33:00.000Z,56.212
2024-02-29T09:34:17.000Z,81.934
2024-02-29T09:35:33.000Z,67.158
2024-02-29T09:36:49.000Z,75.534
2024-02-29T09:38:04.000Z,106.654
2024-02-29T09:39:19.000Z,47.814
2024-02-29T09:40:34.000Z,60.828
2024-02-29T09:41:51.000Z,65.16
2024-02-29T09:43:07.000Z,41.781
2024-02-29T09:44:23.000Z,96.235
2024-02-29T09:45:38.000Z,96.452
2024-02-29T09:46:53.000Z,105.459
2024-02-29T09:48:08.000Z,67.823
2024-02-29T09:49:24.000Z,83.075
2024-02-29T09:50:41.000Z,77.89
2024-02-29T09:51:57.000Z,107.496
2024-02-29T09:53:14.000Z,111.005
2024-02-29T09:54:29.000Z,35.218
2024-02-29T09:55:44.000Z,81.706
2024-02-29T09:56:59.000Z,58.542
2024-02-29T09:58:14.000Z,34.691
2024-02-29T09:59:31.000Z,75.468
2024-02-29T10:00:47.000Z,51.695
2024-02-29T10:02:03.000Z,61.87
2024-02-29T10:03:19.000Z,77.377
2024-02-29T10:04:34.000Z,92.91
2024-02-29T10:05:49.000Z,78.463
2024-02-29T10:07:05.000Z,87.124
2024-02-29T10:08:20.000Z,62.494
2024-02-29T10:09:37.000Z,88.488
2024-02-29T10:10:53.000Z,59.526
2024-02-29T10:12:09.000Z,57.637
2024-02-29T10:13:24.000Z,61.87
2024-02-29T10:14:39.000Z,51.841
2024-02-29T10:15:54.000Z,65.96
2024-02-29T10:17:10.000Z,102.032
2024-02-29T10:18:27.000Z,44.601
2024-02-29T10:19:43.000Z,92.493
2024-02-29T10:20:59.000Z,81.155
2024-02-29T10:22:14.000Z,45.263
2024-02-29T10:23:30.000Z,98.378
2024-02-29T10:24:45.000Z,87.718
2024-02-29T10:26:00.000Z,80.641
2024-02-29T10:27:16.000Z,76.062
2024-02-29T10:28:33.000Z,96.821
2024-02-29T10:29:49.000Z,99.609
2024-02-29T10:31:05.000Z,29.798
2024-02-29T10:32:20.000Z,70.612
2024-02-29T10:33:35.000Z,45.144
2024-02-29T10:34:51.000Z,76.398
2024-02-29T10:36:06.000Z,91.181
2024-02-29T10:37:23.000Z,85.545
2024-02-29T10:38:39.000Z,594.994
2024-02-29T10:39:55.000Z,67.753
2024-02-29T10:41:10.000Z,103.114
2024-02-29T10:42:26.000Z,82.159
2024-02-29T10:43:41.000Z,103.51
2024-02-29T10:44:56.000Z,123.351
2024-02-29T10:46:12.000Z,46.656
2024-02-29T10:47:28.000Z,67.779
2024-02-29T10:48:45.000Z,132.579
2024-02-29T10:50:01.000Z,60.092
2024-02-29T10:51:16.000Z,112.527
2024-02-29T10:52:31.000Z,63.716
2024-02-29T10:53:47.000Z,82.871
2024-02-29T10:55:02.000Z,76.182
2024-02-29T10:56:19.000Z,54.888
2024-02-29T10:57:35.000Z,30.915
2024-02-29T10:58:51.000Z,98.467
2024-02-29T11:00:06.000Z,83.216
2024-02-29T11:01:21.000Z,92.418
2024-02-29T11:02:36.000Z,70.854
2024-02-29T11:03:52.000Z,71.867
2024-02-29T11:05:08.000Z,77.61
2024-02-29T11:06:24.000Z,101.916
2024-02-29T11:07:39.000Z,90.356
2024-02-29T11:08:55.000Z,77.596
2024-02-29T11:10:10.000Z,108.816
2024-02-29T11:11:25.000Z,93.064
2024-02-29T11:12:41.000Z,553.895
2024-02-29T11:13:57.000Z,96.056
2024-02-29T11:15:14.000Z,118.738
2024-02-29T11:16:29.000Z,68.098
2024-02-29T11:17:44.000Z,83.587
2024-02-29T11:18:59.000Z,49.918
2024-02-29T11:20:14.000Z,82.873
2024-02-29T11:21:30.000Z,57.152
2024-02-29T11:22:47.000Z,73.866
2024-02-29T11:24:03.000Z,103.714
2024-02-29T11:25:18.000Z,79.974
2024-02-29T11:26:34.000Z,102.685
2024-02-29T11:27:49.000Z,91.88
2024-02-29T11:29:04.000Z,57.042
2024-02-29T11:30:19.000Z,76.747
2024-02-29T11:31:36.000Z,96.773
2024-02-29T11:32:53.000Z,61.064
2024-02-29T11:34:09.000Z,39.599
2024-02-29T11:35:24.000Z,56.388
2024-02-29T11:36:39.000Z,81.984
2024-02-29T11:37:55.000Z,67.026
2024-02-29T11:39:10.000Z,62.276
2024-02-29T11:40:26.000Z,44.999
2024-02-29T11:41:42.000Z,98.216
2024-02-29T11:42:59.000Z,74.699
2024-02-29T11:44:15.000Z,52.065
2024-02-29T11:45:30.000Z,76.746
2024-02-29T11:46:45.000Z,119.311
2024-02-29T11:48:01.000Z,87.505
2024-02-29T11:49:17.000Z,100.917
2024-02-29T11:50:32.000Z,46.547
2024-02-29T11:51:49.000Z,94.97
2024-02-29T11:53:06.000Z,64.28
2024-02-29T11:54:21.000Z,50.906
2024-02-29T11:55:36.000Z,87.315
2024-02-29T11:56:51.000Z,68.589
2024-02-29T11:58:08.000Z,71.887
2024-02-29T11:59:23.000Z,97.749
2024-02-29T12:00:39.000Z,52.736
2024-02-29T12:01:55.000Z,74.45
2024-02-29T12:03:11.000Z,75.878
2024-02-29T12:04:27.000Z,70.723
2024-02-29T12:05:42.000Z,85.092
2024-02-29T12:06:57.000Z,77.481
2024-02-29T12:08:13.000Z,41.395
2024-02-29T12:09:30.000Z,63.493
2024-02-29T12:10:45.000Z,50.002
2024-02-29T12:12:02.000Z,66.664
2024-02-29T12:13:18.000Z,66.299
2024-02-29T12:14:34.000Z,60.708
2024-02-29T12:15:49.000Z,65.16
2024-02-29T12:17:04.000Z,94.97
2024-02-29T12:18:19.000Z,69.276
2024-02-29T12:19:35.000Z,73.028
2024-02-29T12:20:52.000Z,82.794
2024-02-29T12:22:08.000Z,96.782
2024-02-29T12:23:24.000Z,109.305
2024-02-29T12:24:39.000Z,71.308
2024-02-29T12:25:54.000Z,56.329
2024-02-29T12:27:09.000Z,95.85
2024-02-29T12:28:25.000Z,66.967
2024-02-29T12:29:42.000Z,96.694
2024-02-29T12:30:58.000Z,98.093
2024-02-29T12:32:14.000Z,55.669
2024-02-29T12:33:29.000Z,101.15
2024-02-29T12:34:44.000Z,500.701
2024-02-29T12:36:00.000Z,39.599
2024-02-29T12:37:15.000Z,75.317
2024-02-29T12:38:32.000Z,86.385
2024-02-29T12:39:48.000Z,57.637
2024-02-29T12:41:03.000Z,100.246
2024-02-29T12:42:19.000Z,93.793
2024-02-29T12:43:34.000Z,65.347
2024-02-29T12:44:49.000Z,116.074
2024-02-29T12:46:05.000Z,66.053
2024-02-29T12:47:22.000Z,72.661
2024-02-29T12:48:37.000Z,86.407
2024-02-29T12:49:53.000Z,63.727
2024-02-29T12:51:08.000Z,72.932
2024-02-29T12:52:23.000Z,92.555
2024-02-29T12:53:39.000Z,123.546
2024-02-29T12:54:55.000Z,59.074
2024-02-29T12:56:12.000Z,64.424
2024-02-29T12:57:28.000Z,87.058
2024-02-29T12:58:44.000Z,71.826
2024-02-29T12:59:59.000Z,76.347
2024-02-29T13:01:14.000Z,77.703
2024-02-29T13:02:30.000Z,55.387
2024-02-29T13:03:46.000Z,75.991
2024-02-29T13:05:02.000Z,86.701
2024-02-29T13:06:18.000Z,85.32
2024-02-29T13:07:33.000Z,46.381
2024-02-29T13:08:49.000Z,36.067
2024-02-29T13:10:04.000Z,75.888
2024-02-29T13:11:20.000Z,74.747
2024-02-29T13:12:36.000Z,158.283
2024-02-29T13:13:52.000Z,81.332
2024-02-29T13:15:08.000Z,50.162
2024-02-29T13:16:23.000Z,39.599
2024-02-29T13:17:39.000Z,56.381
2024-02-29T13:18:54.000Z,60.127
2024-02-29T13:20:09.000Z,91.495
2024-02-29T13:21:25.000Z,94.97
2024-02-29T13:22:41.000Z,45.048
2024-02-29T13:23:57.000Z,34.691
2024-02-29T13:25:13.000Z,71.377
2024-02-29T13:26:28.000Z,110.798
2024-02-29T13:27:43.000Z,86.234
2024-02-29T13:28:58.000Z,93.689
2024-02-29T13:30:14.000Z,79.086
2024-02-29T13:31:31.000Z,50.685
2024-02-29T13:32:47.000Z,70.725
2024-02-29T13:34:02.000Z,85.384
2024-02-29T13:35:17.000Z,81.557
2024-02-29T13:36:33.000Z,68.421
2024-02-29T13:37:48.000Z,69.049
2024-02-29T13:39:04.000Z,72.993
2024-02-29T13:40:21.000Z,75.791
2024-02-29T13:41:37.000Z,51.907
2024-02-29T13:42:53.000Z,72.849
2024-02-29T13:44:08.000Z,108.923
2024-02-29T13:45:23.000Z,86.426
2024-02-29T13:46:39.000Z,54.888
2024-02-29T13:47:54.000Z,69.426
2024-02-29T13:49:10.000Z,61.581
2024-02-29T13:50:26.000Z,44.69
2024-02-29T13:51:43.000Z,86.853
2024-02-29T13:52:59.000Z,60.335
2024-02-29T13:54:14.000Z,52.839
2024-02-29T13:55:29.000Z,62.84
2024-02-29T13:56:44.000Z,137.179
2024-02-29T13:58:00.000Z,67.08
2024-02-29T13:59:16.000Z,60.114
2024-02-29T14:00:32.000Z,87.763
2024-02-29T14:01:48.000Z,65.25
2024-02-29T14:03:04.000Z,60.712
2024-02-29T14:04:19.000Z,50.879
2024-02-29T14:05:34.000Z,45.392
2024-02-29T14:06:50.000Z,65.393
2024-02-29T14:08:05.000Z,75.406
2024-02-29T14:09:22.000Z,46.545
2024-02-29T14:10:38.000Z,548.175
2024-02-29T14:11:53.000Z,89.694
2024-02-29T14:13:08.000Z,83.456
2024-02-29T14:14:24.000Z,76.354
2024-02-29T14:15:39.000Z,76.225
2024-02-29T14:16:56.000Z,59.816
2024-02-29T14:18:12.000Z,65.554
2024-02-29T14:19:28.000Z,82.924
2024-02-29T14:20:44.000Z,45.496
2024-02-29T14:22:03.000Z,74.38
2024-02-29T14:23:18.000Z,66.493
2024-02-29T14:24:33.000Z,79.14
2024-02-29T14:25:48.000Z,35.628
2024-02-29T14:27:04.000Z,45.833
2024-02-29T14:28:21.000Z,88.023
2024-02-29T14:29:37.000Z,68.31
2024-02-29T14:30:52.000Z,90.888
2024-02-29T14:32:07.000Z,106.782
2024-02-29T14:33:23.000Z,97.735
2024-02-29T14:34:38.000Z,65.479
2024-02-29T14:35:54.000Z,67.08
2024-02-29T14:37:11.000Z,90.721
2024-02-29T14:38:27.000Z,29.798
2024-02-29T14:39:42.000Z,51.259
2024-02-29T14:40:58.000Z,52.329
2024-02-29T14:42:13.000Z,61.137
2024-02-29T14:43:28.000Z,57.536
2024-02-29T14:44:44.000Z,50.629
2024-02-29T14:46:00.000Z,60.723
2024-02-29T14:47:16.000Z,61.459
2024-02-29T14:48:33.000Z,46.635
2024-02-29T14:49:49.000Z,63.095
2024-02-29T14:51:04.000Z,60.465
2024-02-29T14:52:19.000Z,98.378
2024-02-29T14:53:35.000Z,66.25
2024-02-29T14:54:50.000Z,67.753
2024-02-29T14:56:06.000Z,112.021
2024-02-29T14:57:23.000Z,54.899
2024-02-29T14:58:38.000Z,84.345
2024-02-29T14:59:54.000Z,82.713
2024-02-29T15:01:10.000Z,69.167
2024-02-29T15:02:25.000Z,71.618
2024-02-29T15:03:40.000Z,51.746
2024-02-29T15:04:55.000Z,95.959
2024-02-29T15:06:12.000Z,57.643
2024-02-29T15:07:28.000Z,79.002
2024-02-29T15:08:43.000Z,51.746
2024-02-29T15:10:00.000Z,65.279
2024-02-29T15:11:15.000Z,95.286
2024-02-29T15:12:30.000Z,104.234
2024-02-29T15:13:46.000Z,81.523
2024-02-29T15:15:01.000Z,75.8
2024-02-29T15:16:17.000Z,61.478
2024-02-29T15:17:33.000Z,71.792
2024-02-29T15:18:49.000Z,52.699
2024-02-29T15:20:05.000Z,41.172
2024-02-29T15:21:20.000Z,63.737
2024-02-29T15:22:35.000Z,94.97
2024-02-29T15:23:51.000Z,62.84
2024-02-29T15:25:07.000Z,48.679
2024-02-29T15:26:23.000Z,71.57
2024-02-29T15:27:38.000Z,71.218
2024-02-29T15:28:53.000Z,64.05
2024-02-29T15:30:08.000Z,90.843
2024-02-29T15:31:24.000Z,34.691
2024-02-29T15:32:40.000Z,68.985
2024-02-29T15:33:56.000Z,68.589
2024-02-29T15:35:12.000Z,70.927
2024-02-29T15:36:28.000Z,61.581
2024-02-29T15:37:43.000Z,57.179
2024-02-29T15:38:58.000Z,72.724
2024-02-29T15:40:14.000Z,72.791
2024-02-29T15:41:30.000Z,96.897
2024-02-29T15:42:46.000Z,49.609
2024-02-29T15:44:03.000Z,68.947
2024-02-29T15:45:19.000Z,46.211
2024-02-29T15:46:34.000Z,75.864
2024-02-29T15:47:49.000Z,102.575
2024-02-29T15:49:05.000Z,62.592
2024-02-29T15:50:20.000Z,52.164
2024-02-29T15:51:36.000Z,30.42
2024-02-29T15:52:53.000Z,76.238
2024-02-29T15:54:09.000Z,50.162
2024-02-29T15:55:25.000Z,60.429
2024-02-29T15:56:40.000Z,75.174
2024-02-29T15:57:55.000Z,54.845
2024-02-29T15:59:10.000Z,50.959
2024-02-29T16:00:26.000Z,71.035
2024-02-29T16:01:43.000Z,72.857
2024-02-29T16:02:59.000Z,99.36
2024-02-29T16:04:14.000Z,54.845
2024-02-29T16:05:29.000Z,77.156
2024-02-29T16:06:44.000Z,61.981
2024-02-29T16:07:59.000Z,30.659
2024-02-29T16:09:15.000Z,41.923
2024-02-29T16:10:32.000Z,29.798
2024-02-29T16:11:48.000Z,47.919
2024-02-29T16:13:04.000Z,40.805
2024-02-29T16:14:19.000Z,67.75
2024-02-29T16:15:34.000Z,36.632
2024-02-29T16:16:49.000Z,46.9
2024-02-29T16:18:05.000Z,65.605
2024-02-29T16:19:21.000Z,70.48
2024-02-29T16:20:38.000Z,97.865
2024-02-29T16:21:53.000Z,40.805
2024-02-29T16:23:09.000Z,83.144
2024-02-29T16:24:24.000Z,81.556
2024-02-29T16:25:40.000Z,58.763
2024-02-29T16:26:55.000Z,69.04
2024-02-29T16:28:11.000Z,83.233
2024-02-29T16:29:28.000Z,41.781
2024-02-29T16:30:44.000Z,72.012
2024-02-29T16:32:00.000Z,61.873
2024-02-29T16:33:15.000Z,87.858
2024-02-29T16:34:30.000Z,73.656
2024-02-29T16:35:45.000Z,89.082
2024-02-29T16:37:01.000Z,67.728
2024-02-29T16:38:18.000Z,82.024
2024-02-29T16:39:34.000Z,68.519
2024-02-29T16:40:50.000Z,59.504
2024-02-29T16:42:06.000Z,42.475
2024-02-29T16:43:21.000Z,81.301
2024-02-29T16:44:37.000Z,84.646
2024-02-29T16:45:52.000Z,58.757
2024-02-29T16:47:08.000Z,79.775
2024-02-29T16:48:24.000Z,52.282
2024-02-29T16:49:41.000Z,35.541
2024-02-29T16:50:56.000Z,71.647
2024-02-29T16:52:11.000Z,103.22
2024-02-29T16:53:26.000Z,96.741
2024-02-29T16:54:42.000Z,70.332
2024-02-29T16:55:57.000Z,63.393
2024-02-29T16:57:13.000Z,81.451
2024-02-29T16:58:30.000Z,51.259
2024-02-29T16:59:45.000Z,76.269
2024-02-29T17:01:00.000Z,42.212
2024-02-29T17:02:15.000Z,41.477
2024-02-29T17:03:32.000Z,62.229
2024-02-29T17:04:47.000Z,71.68
2024-02-29T17:06:03.000Z,89.185
2024-02-29T17:07:20.000Z,50.938
2024-02-29T17:08:36.000Z,66.097
2024-02-29T17:09:51.000Z,96.603
2024-02-29T17:11:07.000Z,60.828
2024-02-29T17:12:22.000Z,58.03
2024-02-29T17:13:37.000Z,66.493
2024-02-29T17:14:53.000Z,117.783
2024-02-29T17:16:09.000Z,75.16
2024-02-29T17:17:25.000Z,35.541
2024-02-29T17:18:41.000Z,65.16
2024-02-29T17:19:57.000Z,70.173
2024-02-29T17:21:12.000Z,40.214
2024-02-29T17:22:27.000Z,58.525
2024-02-29T17:23:42.000Z,77.817
2024-02-29T17:24:59.000Z,97.879
2024-02-29T17:26:15.000Z,82.925
2024-02-29T17:27:31.000Z,119.761
2024-02-29T17:28:47.000Z,40.214
2024-02-29T17:30:02.000Z,35.628
2024-02-29T17:31:17.000Z,71.391
2024-02-29T17:32:32.000Z,80.403
2024-02-29T17:33:49.000Z,50.794
2024-02-29T17:35:05.000Z,55.342
2024-02-29T17:36:21.000Z,79.732
2024-02-29T17:37:37.000Z,44.999
2024-02-29T17:38:52.000Z,71.09
2024-02-29T17:40:07.000Z,103.559
2024-02-29T17:41:22.000Z,47.685
2024-02-29T17:42:39.000Z,51.673
2024-02-29T17:43:55.000Z,83.203
2024-02-29T17:45:11.000Z,46.213
2024-02-29T17:46:28.000Z,58.156
2024-02-29T17:47:43.000Z,47.227
2024-02-29T17:48:58.000Z,54.773
2024-02-29T17:50:14.000Z,39.913
2024-02-29T17:51:29.000Z,91.97
2024-02-29T17:52:44.000Z,45.392
2024-02-29T17:54:01.000Z,60.264
2024-02-29T17:55:17.000Z,55.555
2024-02-29T17:56:32.000Z,48.329
2024-02-29T17:57:48.000Z,77.167
2024-02-29T17:59:03.000Z,69.391
2024-02-29T18:00:18.000Z,30.659
2024-02-29T18:01:34.000Z,56.084
2024-02-29T18:02:51.000Z,55.387
2024-02-29T18:04:07.000Z,46.96
2024-02-29T18:05:23.000Z,130.462
2024-02-29T18:06:38.000Z,50.739
2024-02-29T18:07:53.000Z,65.486
2024-02-29T18:09:08.000Z,51.907
2024-02-29T18:10:24.000Z,50.794
2024-02-29T18:11:40.000Z,29.798
2024-02-29T18:12:57.000Z,96.115
2024-02-29T18:14:12.000Z,67.397
2024-02-29T18:15:28.000Z,50.629
2024-02-29T18:16:43.000Z,54.605
2024-02-29T18:17:58.000Z,39.599
2024-02-29T18:19:14.000Z,61.814
2024-02-29T18:20:31.000Z,24.732
2024-02-29T18:21:48.000Z,61.69
2024-02-29T18:23:03.000Z,68.985
2024-02-29T18:24:19.000Z,72.331
2024-02-29T18:25:34.000Z,34.691
2024-02-29T18:26:49.000Z,47.044
2024-02-29T18:28:05.000Z,59.056
2024-02-29T18:29:20.000Z,73.601
2024-02-29T18:30:37.000Z,61.137
2024-02-29T18:31:53.000Z,84.383
2024-02-29T18:33:09.000Z,77.031
2024-02-29T18:34:25.000Z,59.203
2024-02-29T18:35:40.000Z,64.158
2024-02-29T18:36:55.000Z,34.691
2024-02-29T18:38:11.000Z,62.962
2024-02-29T18:39:27.000Z,46.266
2024-02-29T18:40:43.000Z,35.541
2024-02-29T18:41:59.000Z,66.458
2024-02-29T18:43:14.000Z,72.179
2024-02-29T18:44:29.000Z,77.305
2024-02-29T18:45:44.000Z,52.036
2024-02-29T18:47:00.000Z,211.044
2024-02-29T18:48:16.000Z,24.732
2024-02-29T18:49:33.000Z,52.839
2024-02-29T18:50:49.000Z,63.735
2024-02-29T18:52:04.000Z,109.78
2024-02-29T18:53:20.000Z,84.34
2024-02-29T18:54:35.000Z,85.554
2024-02-29T18:55:51.000Z,40.696
2024-02-29T18:57:06.000Z,65.098
2024-02-29T18:58:23.000Z,55.972
2024-02-29T18:59:39.000Z,47.478
2024-02-29T19:00:54.000Z,46.656
2024-02-29T19:02:09.000Z,52.524
2024-02-29T19:03:25.000Z,68.502
2024-02-29T19:04:40.000Z,72.581
2024-02-29T19:05:56.000Z,83.075
2024-02-29T19:07:13.000Z,47.462
2024-02-29T19:08:29.000Z,73.656
2024-02-29T19:09:44.000Z,24.732
2024-02-29T19:10:59.000Z,93.337
2024-02-29T19:12:15.000Z,58.173
2024-02-29T19:13:30.000Z,49.918
2024-02-29T19:14:47.000Z,44.69
2024-02-29T19:16:03.000Z,42.365
2024-02-29T19:17:19.000Z,48.671
2024-02-29T19:18:34.000Z,52.902
2024-02-29T19:19:49.000Z,50.002
2024-02-29T19:21:05.000Z,41.996
2024-02-29T19:22:20.000Z,91.534
2024-02-29T19:23:36.000Z,82.161
2024-02-29T19:24:52.000Z,79.142
2024-02-29T19:26:09.000Z,51.566
2024-02-29T19:27:25.000Z,69.805
2024-02-29T19:28:40.000Z,91.121
2024-02-29T19:29:56.000Z,50.063
2024-02-29T19:31:11.000Z,79.623
2024-02-29T19:32:27.000Z,63.474
2024-02-29T19:33:42.000Z,71.561
2024-02-29T19:34:59.000Z,67.576
2024-02-29T19:36:15.000Z,70.862
2024-02-29T19:37:31.000Z,48.89
2024-02-29T19:38:46.000Z,68.649
2024-02-29T19:40:02.000Z,63.012
2024-02-29T19:41:17.000Z,52.215
2024-02-29T19:42:32.000Z,45.833
2024-02-29T19:43:49.000Z,101.214
2024-02-29T19:45:05.000Z,136.819
2024-02-29T19:46:21.000Z,90.831
2024-02-29T19:47:36.000Z,70.703
2024-02-29T19:48:52.000Z,218.115
2024-02-29T19:50:07.000Z,60.855
2024-02-29T19:51:23.000Z,36.009
2024-02-29T19:52:39.000Z,101.046
2024-02-29T19:53:56.000Z,59.783
2024-02-29T19:55:13.000Z,64.869
2024-02-29T19:56:28.000Z,98.09
2024-02-29T19:57:44.000Z,66.85
2024-02-29T19:58:59.000Z,40.356
2024-02-29T20:00:15.000Z,41.477
2024-02-29T20:01:30.000Z,55.252
2024-02-29T20:02:47.000Z,63.134
2024-02-29T20:04:03.000Z,89.062
2024-02-29T20:05:18.000Z,64.08
2024-02-29T20:06:34.000Z,95.4
2024-02-29T20:07:49.000Z,34.691
2024-02-29T20:09:05.000Z,29.798
2024-02-29T20:10:20.000Z,44.69
2024-02-29T20:11:36.000Z,52.461
2024-02-29T20:12:52.000Z,242.701
2024-02-29T20:14:09.000Z,77.643
2024-02-29T20:15:24.000Z,84.809
2024-02-29T20:16:40.000Z,36.009
2024-02-29T20:17:55.000Z,41.477
2024-02-29T20:19:11.000Z,50.959
2024-02-29T20:20:26.000Z,46.266
2024-02-29T20:21:42.000Z,64.974
2024-02-29T20:22:58.000Z,65.1
2024-02-29T20:24:15.000Z,68.6
2024-02-29T20:25:30.000Z,57.245
2024-02-29T20:26:46.000Z,72.25
2024-02-29T20:28:01.000Z,29.798
2024-02-29T20:29:16.000Z,57.258
2024-02-29T20:30:32.000Z,57.042
2024-02-29T20:31:49.000Z,101.534
2024-02-29T20:33:05.000Z,139.42
2024-02-29T20:34:21.000Z,51.726
2024-02-29T20:35:36.000Z,71.026
2024-02-29T20:36:52.000Z,71.752
2024-02-29T20:38:07.000Z,68.062
2024-02-29T20:39:22.000Z,91.982
2024-02-29T20:40:38.000Z,72.33
2024-02-29T20:41:54.000Z,41.781
2024-02-29T20:43:11.000Z,100.866
2024-02-29T20:44:26.000Z,62.943
2024-02-29T20:45:41.000Z,98.235
2024-02-29T20:46:56.000Z,87.956
2024-02-29T20:48:12.000Z,46.211
2024-02-29T20:49:27.000Z,67.976
2024-02-29T20:50:44.000Z,81.145
2024-02-29T20:52:01.000Z,48.329
2024-02-29T20:53:17.000Z,57.342
2024-02-29T20:54:32.000Z,51.726
2024-02-29T20:55:47.000Z,64.901
2024-02-29T20:57:03.000Z,62.048
2024-02-29T20:58:18.000Z,82.26
2024-02-29T20:59:34.000Z,66.299
2024-02-29T21:00:50.000Z,46.866
2024-02-29T21:02:07.000Z,52.839
2024-02-29T21:03:22.000Z,45.048
2024-02-29T21:04:37.000Z,102.716
2024-02-29T21:05:53.000Z,66.204
2024-02-29T21:07:08.000Z,90.596
2024-02-29T21:08:23.000Z,82.127
2024-02-29T21:09:39.000Z,71.759
2024-02-29T21:10:58.000Z,72.849
2024-02-29T21:12:14.000Z,82.982
2024-02-29T21:13:30.000Z,56.381
2024-02-29T21:14:45.000Z,55.751
2024-02-29T21:16:00.000Z,57.696